KCVH

Details ICAO KCVH
Name Hollister Muni
Region United States
Timezone America/Los_Angeles (UTC-8.0)
Plans Departing 2
Arriving 1
Stats Elevation 230 ft / 70 m (AMSL)
Location 36.892760° -121.409732°
Runways 2
Magnetic Variation 13.154° E
Sunrise 2017-12-17 15:14:13 UTC / 2017-12-17 07:14:13 Local
Sunset 2017-12-18 00:52:21 UTC / 2017-12-17 16:52:21 Local
Advertisement - Login to hide

Runways

ID Width Length Bearing (true) Bearing (mag) Surface Threshold Offset Overrun Length
06 98 ft / 30 m 3,153 ft / 961 m 71.79° 58.64° Asphalt 0 ft / 0 m 699 ft / 213 m
13 98 ft / 30 m 6,357 ft / 1,938 m 142.00° 128.85° Asphalt 0 ft / 0 m 0 ft / 0 m
24 98 ft / 30 m 3,153 ft / 961 m 251.80° 238.65° Asphalt 0 ft / 0 m 499 ft / 152 m
31 98 ft / 30 m 6,357 ft / 1,938 m 322.01° 308.86° Asphalt 0 ft / 0 m 0 ft / 0 m

Map

Weather


0- 5 10 15 20 25 30 35+ Temperature / ° C

Clouds and Precipitation
Forecast for 2017-12-17 12:00 UTC. Updated an hour ago

Ground ~20,000 ft ~40,000 ft Winds

METAR

KCVH 170755Z AUTO 16005KT 10SM CLR 06/M08 A2996 RMK A01

TAF

Not found

Frequencies

Unicom 123.00 MHz CTAF/UNICOM
Approach 124.52 MHz NORCAL APP/DEP
Warning: Do not use this data for real-world aviation or navigation. No guarantee of current accuracy is given.